Time;durP1;ratioP1;P1;durP2;ratioP2;P2;SDS_P1;SDS_P2;PMS_P1;PMS_P2;Temp;Humidity;BMP_temperature;BMP_pressure;BME280_temperature;BME280_humidity;BME280_pressure;Samples;Min_cycle;Max_cycle;Signal;HPM_P1;HPM_P2
2023/09/11 00:01:10;;;;;;;27.00;13.13;;;22.00;99.90;;;;;;5004072;28;20050;-71
2023/09/11 00:03:36;;;;;;;24.55;14.73;;;22.00;99.90;;;;;;5020414;28;20042;-70
2023/09/11 00:06:05;;;;;;;22.42;14.18;;;22.00;99.90;;;;;;5002674;28;20046;-71
2023/09/11 00:08:31;;;;;;;21.85;14.55;;;22.00;99.90;;;;;;5020333;28;20044;-71
2023/09/11 00:10:59;;;;;;;27.00;14.60;;;21.90;99.90;;;;;;5004457;28;20412;-71
2023/09/11 00:13:29;;;;;;;24.40;13.32;;;21.90;99.90;;;;;;5000552;28;20046;-70
2023/09/11 00:15:54;;;;;;;20.75;13.63;;;21.90;99.90;;;;;;5002467;28;20132;-71
2023/09/11 00:18:20;;;;;;;20.00;13.93;;;21.90;99.90;;;;;;5017732;28;20504;-70
2023/09/11 00:20:46;;;;;;;17.98;13.45;;;21.90;99.90;;;;;;5005049;28;20536;-73
2023/09/11 00:23:12;;;;;;;26.80;14.85;;;21.90;99.90;;;;;;5000951;28;20078;-70
2023/09/11 00:25:37;;;;;;;23.98;14.07;;;21.90;99.90;;;;;;5001864;28;20049;-70
2023/09/11 00:28:03;;;;;;;20.42;14.77;;;21.90;99.90;;;;;;5020187;28;20806;-71
2023/09/11 00:30:29;;;;;;;28.33;13.68;;;21.80;99.90;;;;;;5003874;28;20041;-70
2023/09/11 00:32:55;;;;;;;28.48;15.55;;;21.80;99.90;;;;;;5019619;23;20528;-59
2023/09/11 00:35:20;;;;;;;23.30;13.48;;;21.80;99.90;;;;;;4997495;28;20420;-59
2023/09/11 00:37:46;;;;;;;25.50;13.57;;;21.80;99.90;;;;;;4982433;28;20034;-59
2023/09/11 00:40:12;;;;;;;26.92;14.15;;;21.80;99.90;;;;;;5000048;28;20038;-60
2023/09/11 00:42:38;;;;;;;26.67;15.13;;;21.80;99.90;;;;;;5001031;28;20457;-59
2023/09/11 00:45:04;;;;;;;24.45;14.13;;;21.80;99.90;;;;;;4999188;28;20050;-59
2023/09/11 00:47:30;;;;;;;25.33;14.88;;;21.80;99.90;;;;;;4999201;28;20450;-59
2023/09/11 00:49:58;;;;;;;26.35;15.07;;;21.70;99.90;;;;;;4999433;28;20141;-59
2023/09/11 00:52:24;;;;;;;25.60;14.60;;;21.70;99.90;;;;;;4998289;28;20050;-60
2023/09/11 00:54:53;;;;;;;28.88;13.57;;;21.70;99.90;;;;;;4981694;28;20053;-60
2023/09/11 00:57:19;;;;;;;26.27;14.20;;;21.70;99.90;;;;;;5015000;28;20493;-60
2023/09/11 00:59:46;;;;;;;22.00;13.90;;;21.70;99.90;;;;;;4998477;28;20041;-59
2023/09/11 01:02:15;;;;;;;19.65;13.18;;;21.70;99.90;;;;;;5014119;28;20556;-60
2023/09/11 01:04:45;;;;;;;28.17;14.77;;;21.70;99.90;;;;;;5014261;28;20083;-59
2023/09/11 01:07:12;;;;;;;24.75;15.88;;;21.70;99.90;;;;;;4981672;28;20037;-60
2023/09/11 01:09:38;;;;;;;21.23;14.05;;;21.70;99.90;;;;;;4998990;28;20092;-60
2023/09/11 01:12:05;;;;;;;23.77;13.77;;;21.70;99.90;;;;;;4999432;28;20084;-59
2023/09/11 01:14:31;;;;;;;21.67;14.38;;;21.60;99.90;;;;;;5015534;28;20038;-59
2023/09/11 01:17:05;;;;;;;26.15;15.57;;;21.60;99.90;;;;;;4998321;28;20598;-60
2023/09/11 01:20:05;;;;;;;24.00;13.43;;;21.60;99.90;;;;;;4998263;28;20400;-61
2023/09/11 01:22:56;;;;;;;29.55;14.85;;;21.60;99.90;;;;;;4998607;28;20029;-59
2023/09/11 01:25:37;;;;;;;26.13;14.45;;;21.60;99.90;;;;;;4999038;28;20056;-60
2023/09/11 01:28:36;;;;;;;27.05;15.43;;;21.60;99.90;;;;;;4998207;28;20050;-60
2023/09/11 01:31:02;;;;;;;20.90;14.30;;;21.60;99.90;;;;;;4999174;28;20068;-59
2023/09/11 01:33:28;;;;;;;25.92;14.93;;;21.50;99.90;;;;;;4997484;28;20104;-59
2023/09/11 01:35:54;;;;;;;22.40;15.00;;;21.50;99.90;;;;;;4998657;28;20654;-60
2023/09/11 01:38:20;;;;;;;20.27;13.40;;;21.50;99.90;;;;;;4979645;28;20265;-60
2023/09/11 01:40:51;;;;;;;24.38;14.27;;;21.50;99.90;;;;;;4982480;28;20175;-60
2023/09/11 01:43:19;;;;;;;21.77;14.00;;;21.50;99.90;;;;;;4999422;28;20397;-59
2023/09/11 01:45:46;;;;;;;21.67;13.35;;;21.40;99.90;;;;;;4998539;28;20045;-59
2023/09/11 01:48:12;;;;;;;22.10;15.27;;;21.40;99.90;;;;;;4998065;28;20076;-58
2023/09/11 01:50:40;;;;;;;23.08;14.38;;;21.40;99.90;;;;;;4997421;28;20042;-60
2023/09/11 01:53:06;;;;;;;28.88;14.90;;;21.40;99.90;;;;;;4996670;28;20497;-59
2023/09/11 01:55:33;;;;;;;23.55;13.60;;;21.40;99.90;;;;;;4997438;28;20069;-59
2023/09/11 01:58:00;;;;;;;23.05;14.77;;;21.40;99.90;;;;;;5001556;28;20045;-60
2023/09/11 02:00:25;;;;;;;23.85;16.20;;;21.40;99.90;;;;;;5000525;28;20042;-60
2023/09/11 02:02:55;;;;;;;22.60;14.73;;;21.40;99.90;;;;;;5003350;28;20436;-59
2023/09/11 02:05:23;;;;;;;19.90;14.32;;;21.40;99.90;;;;;;4998271;28;20048;-59
2023/09/11 02:07:49;;;;;;;21.45;14.05;;;21.30;99.90;;;;;;4981064;28;20322;-59
2023/09/11 02:10:16;;;;;;;25.20;14.90;;;21.30;99.90;;;;;;4997248;28;20033;-59
2023/09/11 02:12:41;;;;;;;21.02;14.52;;;21.30;99.90;;;;;;4998235;28;20073;-59
2023/09/11 02:15:07;;;;;;;23.52;14.05;;;21.30;99.90;;;;;;4978351;28;20180;-59
2023/09/11 02:17:33;;;;;;;22.55;15.25;;;21.30;99.90;;;;;;4996305;28;20109;-59
2023/09/11 02:19:59;;;;;;;24.52;15.30;;;21.30;99.90;;;;;;5000222;28;20050;-60
2023/09/11 02:22:24;;;;;;;23.75;14.88;;;21.30;99.90;;;;;;4981532;28;20050;-59
2023/09/11 02:24:50;;;;;;;23.92;15.10;;;21.20;99.90;;;;;;4997182;28;20377;-59
2023/09/11 02:27:16;;;;;;;29.17;16.33;;;21.30;99.90;;;;;;4996423;28;20428;-59
2023/09/11 02:29:41;;;;;;;20.63;14.77;;;21.30;99.90;;;;;;4998133;28;20103;-59
2023/09/11 02:32:07;;;;;;;20.77;14.73;;;21.30;99.90;;;;;;5014453;28;20176;-59
2023/09/11 02:34:33;;;;;;;24.95;15.50;;;21.20;99.90;;;;;;4997061;28;20706;-59
2023/09/11 02:36:58;;;;;;;28.58;16.13;;;21.20;99.90;;;;;;4999279;28;20065;-59
2023/09/11 02:39:24;;;;;;;21.33;15.13;;;21.20;99.90;;;;;;4998375;28;20046;-59
2023/09/11 02:41:50;;;;;;;24.65;16.60;;;21.20;99.90;;;;;;4998687;28;20092;-59
2023/09/11 02:44:15;;;;;;;23.45;15.55;;;21.20;99.90;;;;;;4980443;28;20595;-59
2023/09/11 02:46:43;;;;;;;21.25;15.48;;;21.20;99.90;;;;;;4995151;28;20034;-59
2023/09/11 02:49:09;;;;;;;27.33;17.67;;;21.20;99.90;;;;;;4980906;28;20304;-58
2023/09/11 02:51:34;;;;;;;23.30;14.95;;;21.10;99.90;;;;;;4996730;28;20033;-59
2023/09/11 02:54:00;;;;;;;28.40;17.20;;;21.10;99.90;;;;;;4980380;28;20429;-59
2023/09/11 02:56:26;;;;;;;25.75;15.82;;;21.10;99.90;;;;;;4995189;28;20096;-59
2023/09/11 02:58:52;;;;;;;25.17;17.73;;;21.10;99.90;;;;;;4996845;28;20501;-58
2023/09/11 03:01:18;;;;;;;27.23;16.95;;;21.10;99.90;;;;;;4996924;28;20038;-58
2023/09/11 03:03:44;;;;;;;30.98;19.38;;;21.10;99.90;;;;;;4998782;28;20050;-58
2023/09/11 03:06:10;;;;;;;28.02;17.05;;;21.10;99.90;;;;;;5014754;28;20042;-59
2023/09/11 03:08:36;;;;;;;25.17;16.58;;;21.00;99.90;;;;;;4962468;28;20049;-59
2023/09/11 03:11:07;;;;;;;24.73;16.83;;;21.00;99.90;;;;;;4978644;28;20045;-59
2023/09/11 03:13:33;;;;;;;28.15;18.30;;;21.00;99.90;;;;;;4995627;28;20154;-59
2023/09/11 03:16:08;;;;;;;22.27;17.52;;;21.00;99.90;;;;;;4998268;28;20145;-58
2023/09/11 03:18:34;;;;;;;29.38;18.02;;;21.00;99.90;;;;;;4998587;28;20446;-58
2023/09/11 03:21:00;;;;;;;22.67;17.80;;;21.00;99.90;;;;;;5013319;28;20492;-58
2023/09/11 03:23:25;;;;;;;25.77;19.60;;;21.00;99.90;;;;;;4995251;28;20046;-59
2023/09/11 03:25:51;;;;;;;34.78;18.55;;;20.90;99.90;;;;;;4997089;28;20045;-59
2023/09/11 03:28:17;;;;;;;31.00;17.98;;;20.90;99.90;;;;;;4997227;28;20757;-59
2023/09/11 03:30:43;;;;;;;27.75;16.40;;;20.90;99.90;;;;;;4995192;28;20046;-59
2023/09/11 03:33:08;;;;;;;22.48;16.42;;;20.90;99.90;;;;;;4981428;28;20052;-59
2023/09/11 03:35:34;;;;;;;30.08;16.67;;;20.90;99.90;;;;;;4997415;28;20042;-59
2023/09/11 03:37:59;;;;;;;24.38;17.88;;;20.90;99.90;;;;;;4996587;28;20390;-59
2023/09/11 03:40:25;;;;;;;26.55;19.00;;;20.90;99.90;;;;;;4998574;28;20053;-58
2023/09/11 03:42:51;;;;;;;28.75;17.80;;;20.90;99.90;;;;;;5018084;28;20046;-58
2023/09/11 03:45:17;;;;;;;25.67;17.77;;;20.90;99.90;;;;;;4983629;28;20049;-58
2023/09/11 03:47:43;;;;;;;28.20;18.83;;;20.80;99.90;;;;;;4999512;28;20051;-60
2023/09/11 03:50:08;;;;;;;23.88;16.80;;;20.90;99.90;;;;;;4984543;28;20041;-59
2023/09/11 03:52:34;;;;;;;25.52;16.48;;;20.80;99.90;;;;;;5001510;28;20045;-58
2023/09/11 03:55:00;;;;;;;23.83;16.67;;;20.80;99.90;;;;;;5000951;28;20048;-60
2023/09/11 03:57:26;;;;;;;25.27;17.77;;;20.80;99.90;;;;;;5000873;28;20038;-59
2023/09/11 03:59:51;;;;;;;23.58;18.02;;;20.80;99.90;;;;;;4987210;28;20197;-59
2023/09/11 04:02:17;;;;;;;25.25;17.30;;;20.80;99.90;;;;;;4996491;28;20074;-59
2023/09/11 04:04:43;;;;;;;31.35;19.17;;;20.80;99.90;;;;;;5002193;28;20049;-59
2023/09/11 04:07:08;;;;;;;27.92;18.30;;;20.80;99.90;;;;;;4968517;28;20464;-58
2023/09/11 04:09:34;;;;;;;25.88;19.65;;;20.80;99.90;;;;;;4998832;28;20053;-59
2023/09/11 04:12:03;;;;;;;26.85;18.35;;;20.80;99.90;;;;;;4983577;28;20285;-59
2023/09/11 04:14:29;;;;;;;25.30;18.50;;;20.80;99.90;;;;;;4998580;28;20034;-58
2023/09/11 04:16:56;;;;;;;24.98;16.80;;;20.80;99.90;;;;;;4999339;28;20038;-59
2023/09/11 04:19:22;;;;;;;28.95;17.67;;;20.80;99.90;;;;;;4980600;28;20056;-59
2023/09/11 04:21:48;;;;;;;25.38;17.42;;;20.80;99.90;;;;;;4999717;28;20497;-58
2023/09/11 04:24:14;;;;;;;22.02;15.85;;;20.80;99.90;;;;;;4998300;28;20038;-59
2023/09/11 04:26:40;;;;;;;24.05;17.30;;;20.80;99.90;;;;;;5006030;28;20054;-59
2023/09/11 04:29:07;;;;;;;23.92;18.13;;;20.80;99.90;;;;;;4999073;28;20129;-59
2023/09/11 04:31:33;;;;;;;30.33;16.92;;;20.80;99.90;;;;;;5000028;28;20160;-59
2023/09/11 04:33:58;;;;;;;25.63;18.02;;;20.90;99.90;;;;;;4981238;28;20046;-59
2023/09/11 04:36:24;;;;;;;21.70;17.80;;;20.90;99.90;;;;;;5000460;28;20045;-59
2023/09/11 04:38:50;;;;;;;26.80;17.38;;;20.90;99.90;;;;;;4996473;28;20552;-58
2023/09/11 04:41:16;;;;;;;24.55;17.25;;;20.90;99.90;;;;;;4998479;28;20041;-59
2023/09/11 04:43:42;;;;;;;26.13;17.38;;;20.90;99.90;;;;;;5001507;28;20041;-59
2023/09/11 04:46:07;;;;;;;22.55;18.10;;;20.90;99.90;;;;;;5000529;28;20046;-60
2023/09/11 04:48:33;;;;;;;28.58;18.35;;;21.00;99.90;;;;;;4982477;28;20109;-59
2023/09/11 04:50:59;;;;;;;27.80;18.65;;;21.00;99.90;;;;;;4983075;28;20318;-59
2023/09/11 04:53:25;;;;;;;25.88;18.20;;;21.00;99.90;;;;;;4999842;28;20484;-59
2023/09/11 04:55:51;;;;;;;29.08;19.65;;;21.00;99.90;;;;;;5000074;28;20126;-59
2023/09/11 04:58:16;;;;;;;25.55;18.67;;;21.00;99.90;;;;;;5006675;28;20401;-57
2023/09/11 05:00:43;;;;;;;29.60;17.63;;;20.90;99.90;;;;;;4997366;28;20489;-58
2023/09/11 05:03:08;;;;;;;29.30;19.08;;;21.00;99.90;;;;;;4998465;28;20744;-59
2023/09/11 05:05:40;;;;;;;27.17;19.05;;;21.00;99.90;;;;;;5002231;28;20057;-59
2023/09/11 05:08:07;;;;;;;26.13;17.98;;;21.00;99.90;;;;;;4999462;28;20516;-58
2023/09/11 05:10:33;;;;;;;34.15;17.90;;;21.00;99.90;;;;;;5004343;28;20096;-59
2023/09/11 05:12:58;;;;;;;27.05;17.63;;;20.90;99.90;;;;;;5000884;28;20041;-59
2023/09/11 05:15:24;;;;;;;28.60;18.02;;;21.00;99.90;;;;;;5002557;28;20065;-59
2023/09/11 05:17:50;;;;;;;24.75;17.65;;;21.00;99.90;;;;;;5003000;28;20125;-59
2023/09/11 05:20:16;;;;;;;23.10;17.30;;;21.00;99.90;;;;;;5004002;28;20127;-58
2023/09/11 05:22:42;;;;;;;30.40;19.35;;;20.90;99.90;;;;;;4967020;28;20073;-60
2023/09/11 05:25:08;;;;;;;24.83;18.90;;;20.90;99.90;;;;;;5005121;28;20370;-59
2023/09/11 05:27:34;;;;;;;22.40;16.92;;;20.90;99.90;;;;;;4999213;28;20042;-59
2023/09/11 05:30:00;;;;;;;22.40;17.67;;;20.90;99.90;;;;;;4998778;28;20052;-59
2023/09/11 05:32:25;;;;;;;28.83;18.05;;;21.00;99.90;;;;;;4997575;28;20042;-60
2023/09/11 05:34:52;;;;;;;27.27;17.63;;;20.90;99.90;;;;;;5015743;28;20519;-59
2023/09/11 05:37:18;;;;;;;28.70;20.23;;;21.00;99.90;;;;;;4999340;28;20661;-59
2023/09/11 05:39:45;;;;;;;21.00;17.17;;;21.00;99.90;;;;;;5001751;28;20654;-59
2023/09/11 05:42:11;;;;;;;25.58;17.70;;;21.00;99.90;;;;;;5004812;28;20062;-59
2023/09/11 05:44:37;;;;;;;26.92;18.42;;;21.00;99.90;;;;;;5003670;28;20046;-64
2023/09/11 05:47:03;;;;;;;21.38;16.25;;;21.10;99.90;;;;;;5002841;28;20513;-60
2023/09/11 05:49:29;;;;;;;27.40;19.13;;;21.10;99.90;;;;;;4986698;28;20129;-60
2023/09/11 05:51:55;;;;;;;26.52;19.10;;;21.10;99.90;;;;;;5004413;28;20125;-60
2023/09/11 05:54:21;;;;;;;26.10;18.67;;;21.10;99.90;;;;;;5005950;28;20489;-60
2023/09/11 05:56:47;;;;;;;22.38;18.98;;;21.20;99.90;;;;;;5015238;28;20073;-60
2023/09/11 05:59:14;;;;;;;26.15;17.23;;;21.20;99.90;;;;;;4999968;28;20147;-60
2023/09/11 06:01:40;;;;;;;28.90;19.50;;;21.20;99.90;;;;;;5003075;28;20034;-60
2023/09/11 06:04:06;;;;;;;26.08;19.17;;;21.20;99.90;;;;;;5003445;28;20204;-60
2023/09/11 06:06:32;;;;;;;27.65;18.48;;;21.30;99.90;;;;;;4998606;28;20077;-60
2023/09/11 06:08:59;;;;;;;33.78;19.75;;;21.30;99.90;;;;;;4985523;28;20042;-60
2023/09/11 06:11:25;;;;;;;29.60;19.17;;;21.30;99.90;;;;;;5000823;28;20084;-59
2023/09/11 06:13:51;;;;;;;27.67;18.95;;;21.30;99.90;;;;;;5001586;28;20085;-60
2023/09/11 06:16:16;;;;;;;28.45;21.50;;;21.30;99.90;;;;;;4998212;28;20125;-60
2023/09/11 06:18:42;;;;;;;26.33;18.80;;;21.30;99.90;;;;;;4995830;28;20046;-59
2023/09/11 06:21:08;;;;;;;32.85;20.23;;;21.30;99.90;;;;;;5000560;28;20034;-60
2023/09/11 06:23:34;;;;;;;24.50;17.80;;;21.30;99.90;;;;;;4998564;28;20042;-59
2023/09/11 06:25:59;;;;;;;25.58;20.08;;;21.40;99.90;;;;;;4979769;28;20034;-60
2023/09/11 06:28:25;;;;;;;24.05;17.95;;;21.40;99.90;;;;;;5001119;28;20460;-59
2023/09/11 06:30:51;;;;;;;24.08;19.83;;;21.40;99.90;;;;;;5001542;28;20065;-59
2023/09/11 06:33:16;;;;;;;28.58;20.13;;;21.40;99.90;;;;;;4995845;28;20058;-59
2023/09/11 06:35:42;;;;;;;26.15;21.08;;;21.40;99.90;;;;;;5015179;28;20034;-60
2023/09/11 06:38:08;;;;;;;25.02;19.58;;;21.50;99.90;;;;;;5014691;28;20132;-60
2023/09/11 06:40:33;;;;;;;24.95;21.13;;;21.50;99.90;;;;;;4983029;28;20103;-60
2023/09/11 06:42:59;;;;;;;28.75;21.52;;;21.50;99.90;;;;;;5000240;28;20133;-60
2023/09/11 06:45:25;;;;;;;30.65;20.20;;;21.50;99.90;;;;;;5000550;28;20058;-60
2023/09/11 06:47:50;;;;;;;27.58;19.38;;;21.60;99.90;;;;;;4996101;28;20076;-60
2023/09/11 06:50:16;;;;;;;30.30;20.45;;;21.60;99.90;;;;;;5000472;28;20240;-60
2023/09/11 06:52:42;;;;;;;28.23;21.02;;;21.70;99.90;;;;;;5001582;28;20050;-60
2023/09/11 06:55:08;;;;;;;24.63;19.60;;;21.80;99.90;;;;;;5001875;28;20048;-60
2023/09/11 06:57:34;;;;;;;27.05;20.50;;;21.90;99.90;;;;;;5000095;28;20053;-60
2023/09/11 06:59:59;;;;;;;28.33;19.63;;;22.00;99.90;;;;;;4995959;28;20287;-60
2023/09/11 07:02:25;;;;;;;29.17;19.73;;;22.00;99.90;;;;;;4997451;28;20140;-60
2023/09/11 07:04:51;;;;;;;24.77;19.02;;;22.10;99.90;;;;;;4993986;28;20545;-60
2023/09/11 07:07:16;;;;;;;27.65;19.90;;;22.10;99.90;;;;;;4999012;28;20196;-60
2023/09/11 07:09:42;;;;;;;27.27;20.35;;;22.10;99.90;;;;;;5003950;28;20037;-59
2023/09/11 07:12:08;;;;;;;30.92;19.33;;;22.20;99.90;;;;;;5007316;28;20046;-60
2023/09/11 07:14:34;;;;;;;26.90;19.88;;;22.20;99.90;;;;;;4998745;28;20041;-60
2023/09/11 07:17:02;;;;;;;26.50;19.55;;;22.30;99.90;;;;;;5021198;28;20057;-60
2023/09/11 07:19:27;;;;;;;23.35;18.25;;;22.40;99.90;;;;;;4998552;28;20133;-60
2023/09/11 07:21:53;;;;;;;28.05;20.95;;;22.50;99.90;;;;;;4997383;28;20049;-60
2023/09/11 07:24:19;;;;;;;30.55;19.88;;;22.60;99.90;;;;;;4995916;28;20096;-59
2023/09/11 07:26:45;;;;;;;27.08;19.58;;;22.60;99.90;;;;;;4977153;28;20049;-60
2023/09/11 07:29:10;;;;;;;26.73;19.95;;;22.60;99.90;;;;;;5006259;28;20044;-59
2023/09/11 07:31:36;;;;;;;23.67;19.50;;;22.70;99.90;;;;;;5012748;28;20108;-59
2023/09/11 07:34:02;;;;;;;25.77;19.88;;;22.80;99.90;;;;;;4997573;28;20128;-60
2023/09/11 07:36:29;;;;;;;24.20;20.17;;;22.90;99.90;;;;;;4999093;28;20029;-60
2023/09/11 07:38:55;;;;;;;25.85;20.77;;;23.00;99.90;;;;;;4992052;28;20100;-60
2023/09/11 07:41:21;;;;;;;25.58;19.30;;;23.00;99.90;;;;;;4999187;28;20050;-60
2023/09/11 07:43:50;;;;;;;23.35;19.20;;;23.10;99.90;;;;;;5016504;28;20052;-60
2023/09/11 07:46:25;;;;;;;26.52;18.85;;;23.20;99.90;;;;;;4991900;28;20053;-60
2023/09/11 07:48:51;;;;;;;32.78;21.80;;;23.40;99.90;;;;;;5001827;28;20034;-60
2023/09/11 07:51:17;;;;;;;28.85;19.63;;;23.40;99.90;;;;;;4996103;28;20394;-60
2023/09/11 07:53:44;;;;;;;24.77;18.52;;;23.50;99.90;;;;;;5011300;28;20688;-60
2023/09/11 07:56:10;;;;;;;23.40;18.20;;;23.60;99.90;;;;;;4999148;28;20030;-60
2023/09/11 07:58:37;;;;;;;23.65;18.30;;;23.70;99.90;;;;;;5014939;28;20120;-60
2023/09/11 08:01:03;;;;;;;22.50;18.02;;;23.70;99.90;;;;;;5006340;28;20103;-60
2023/09/11 08:03:33;;;;;;;19.88;16.75;;;23.80;99.90;;;;;;5009474;28;20075;-60
2023/09/11 08:06:05;;;;;;;26.25;17.83;;;23.90;99.90;;;;;;5005313;28;20056;-60
2023/09/11 08:08:32;;;;;;;24.33;17.70;;;24.00;99.90;;;;;;5007428;28;20047;-60
2023/09/11 08:10:57;;;;;;;24.65;18.10;;;24.10;99.90;;;;;;5006017;28;20467;-60
2023/09/11 08:13:23;;;;;;;25.95;17.95;;;24.10;99.90;;;;;;5008400;28;20042;-60
2023/09/11 08:15:49;;;;;;;24.08;16.08;;;24.20;99.90;;;;;;5005734;28;20030;-60
2023/09/11 08:18:15;;;;;;;25.67;18.00;;;24.30;99.90;;;;;;5006016;28;20072;-59
2023/09/11 08:20:45;;;;;;;20.75;16.17;;;24.50;99.90;;;;;;5007651;28;20497;-60
2023/09/11 08:23:10;;;;;;;19.52;15.98;;;24.60;99.90;;;;;;5007043;28;20135;-60
2023/09/11 08:25:36;;;;;;;20.17;15.82;;;24.60;99.90;;;;;;5005727;28;21597;-60
2023/09/11 08:28:02;;;;;;;22.25;15.23;;;24.80;99.90;;;;;;5013356;28;20500;-60
2023/09/11 08:30:28;;;;;;;25.25;17.52;;;24.80;99.90;;;;;;5005037;28;20089;-60
2023/09/11 08:32:54;;;;;;;24.17;19.88;;;24.90;99.90;;;;;;4990050;28;20046;-62
2023/09/11 08:35:20;;;;;;;27.88;19.52;;;25.00;99.90;;;;;;5014168;28;20030;-60
2023/09/11 08:37:46;;;;;;;26.50;19.75;;;25.00;99.90;;;;;;4996330;28;20030;-60
2023/09/11 08:40:12;;;;;;;26.00;19.15;;;25.10;99.90;;;;;;5004952;28;20411;-60
2023/09/11 08:42:38;;;;;;;28.95;19.67;;;25.10;99.90;;;;;;5020405;28;20108;-59
2023/09/11 08:45:04;;;;;;;26.45;21.48;;;25.20;99.90;;;;;;5002427;28;20112;-59
2023/09/11 08:47:31;;;;;;;32.70;20.60;;;25.30;99.90;;;;;;5004920;28;20085;-59
2023/09/11 08:50:04;;;;;;;25.58;20.42;;;25.40;99.90;;;;;;5017230;28;20037;-59
2023/09/11 08:52:30;;;;;;;;;;;25.50;99.90;;;;;;5002920;28;20053;-58
2023/09/11 08:55:02;;;;;;;26.52;19.13;;;25.60;99.90;;;;;;5005209;28;19918;-59
2023/09/11 08:57:31;;;;;;;25.15;18.40;;;25.70;99.90;;;;;;5001988;28;20045;-58
2023/09/11 09:00:07;;;;;;;25.83;20.08;;;25.80;99.90;;;;;;4999416;28;20128;-62
2023/09/11 09:02:34;;;;;;;20.20;17.65;;;25.90;99.90;;;;;;4999415;28;20061;-61
2023/09/11 09:05:03;;;;;;;21.50;16.25;;;26.00;99.90;;;;;;5002438;28;20116;-57
2023/09/11 09:07:34;;;;;;;21.65;15.90;;;26.10;99.90;;;;;;5001068;28;20041;-58
2023/09/11 09:10:11;;;;;;;21.98;15.60;;;26.20;99.90;;;;;;5018106;28;20048;-60
2023/09/11 09:12:38;;;;;;;20.52;17.20;;;26.30;99.90;;;;;;5004007;28;20049;-59
2023/09/11 09:15:04;;;;;;;20.33;17.00;;;26.30;99.90;;;;;;4999906;28;20045;-59
2023/09/11 09:17:30;;;;;;;22.17;17.58;;;26.40;99.90;;;;;;5001092;28;20037;-59
2023/09/11 09:19:56;;;;;;;19.38;16.67;;;26.50;99.90;;;;;;5003570;28;20421;-59
2023/09/11 09:22:21;;;;;;;20.67;18.08;;;26.50;99.90;;;;;;5003064;28;20358;-59
2023/09/11 09:24:52;;;;;;;19.75;17.02;;;26.40;99.90;;;;;;5005199;28;20412;-60
2023/09/11 09:27:18;;;;;;;23.17;19.02;;;26.50;99.90;;;;;;5003405;28;20065;-60
2023/09/11 09:29:44;;;;;;;21.77;18.20;;;26.60;99.90;;;;;;4999776;28;20046;-59
2023/09/11 09:32:11;;;;;;;22.10;19.70;;;26.60;99.90;;;;;;5007747;28;20339;-60
2023/09/11 09:34:41;;;;;;;24.48;20.10;;;26.50;99.90;;;;;;5006904;28;20373;-58
2023/09/11 09:37:17;;;;;;;23.92;18.65;;;26.60;99.90;;;;;;5004094;28;20060;-60
2023/09/11 09:39:44;;;;;;;22.65;18.98;;;26.70;99.90;;;;;;5018545;28;20048;-59
2023/09/11 09:42:12;;;;;;;23.83;19.65;;;26.60;99.90;;;;;;4987287;28;20452;-59
2023/09/11 09:44:40;;;;;;;26.35;18.98;;;26.70;99.90;;;;;;5008510;28;20045;-59
2023/09/11 09:47:10;;;;;;;25.58;18.95;;;26.80;99.90;;;;;;5004592;28;20569;-59
2023/09/11 09:49:43;;;;;;;20.42;17.23;;;26.70;99.90;;;;;;5003803;28;20436;-58
2023/09/11 09:52:09;;;;;;;25.08;18.70;;;26.70;99.90;;;;;;5004986;28;20383;-60
2023/09/11 09:54:51;;;;;;;21.65;18.85;;;26.70;99.90;;;;;;4990557;28;20041;-59
2023/09/11 09:57:19;;;;;;;21.85;19.60;;;26.90;99.90;;;;;;5009523;28;20041;-59
2023/09/11 09:59:57;;;;;;;24.50;19.73;;;27.00;99.90;;;;;;5013301;28;20073;-59
2023/09/11 10:02:31;;;;;;;27.27;19.08;;;27.20;99.90;;;;;;5017046;28;20446;-59
2023/09/11 10:05:01;;;;;;;22.60;19.67;;;27.40;99.90;;;;;;5005251;28;20045;-59
2023/09/11 10:07:38;;;;;;;21.90;18.60;;;27.40;99.90;;;;;;5004726;28;20053;-58
2023/09/11 10:10:28;;;;;;;21.95;17.88;;;27.40;99.90;;;;;;5010196;28;20646;-59
2023/09/11 10:13:00;;;;;;;19.58;16.48;;;27.50;99.90;;;;;;4989911;28;20058;-60
2023/09/11 10:15:26;;;;;;;19.40;17.48;;;27.60;99.90;;;;;;4989659;28;20406;-59
2023/09/11 10:17:56;;;;;;;23.50;19.02;;;27.80;99.90;;;;;;5007455;28;20597;-60
2023/09/11 10:20:23;;;;;;;23.25;18.15;;;27.80;99.90;;;;;;4996376;28;20543;-59
2023/09/11 10:22:53;;;;;;;26.55;19.45;;;27.90;99.90;;;;;;5013098;28;20468;-59
2023/09/11 10:25:21;;;;;;;22.63;18.33;;;28.00;99.90;;;;;;5018602;28;20068;-60
2023/09/11 10:27:49;;;;;;;20.10;16.88;;;28.00;99.90;;;;;;5021624;28;20084;-63
2023/09/11 10:30:21;;;;;;;17.88;14.57;;;27.90;99.90;;;;;;5006745;28;20042;-59
2023/09/11 10:33:25;;;;;;;15.68;12.90;;;27.70;99.90;;;;;;5031537;28;20176;-59
2023/09/11 10:36:03;;;;;;;17.75;13.80;;;27.60;99.90;;;;;;5008064;28;20058;-58
2023/09/11 10:38:31;;;;;;;14.27;12.60;;;27.80;99.90;;;;;;4987882;28;20076;-60
2023/09/11 10:41:00;;;;;;;17.48;11.30;;;27.70;99.90;;;;;;5003068;28;20312;-60
2023/09/11 10:43:26;;;;;;;14.02;10.95;;;28.00;99.90;;;;;;5001999;28;20091;-59
2023/09/11 10:45:52;;;;;;;13.00;11.10;;;28.20;99.90;;;;;;5002560;28;20790;-59
2023/09/11 10:48:29;;;;;;;13.90;10.13;;;28.40;99.90;;;;;;5001861;28;20254;-60
2023/09/11 10:50:57;;;;;;;13.52;9.43;;;28.50;99.50;;;;;;5019376;28;20080;-60
2023/09/11 10:53:31;;;;;;;11.70;9.65;;;28.50;98.40;;;;;;5003216;28;20034;-59
2023/09/11 10:56:00;;;;;;;10.18;8.80;;;28.50;99.10;;;;;;5002620;28;20105;-60
2023/09/11 10:58:29;;;;;;;14.32;9.85;;;28.70;98.90;;;;;;5007069;28;20455;-60
2023/09/11 11:00:58;;;;;;;12.55;10.23;;;28.80;98.70;;;;;;5020924;28;20096;-60
2023/09/11 11:03:32;;;;;;;12.75;10.45;;;28.60;98.00;;;;;;5008897;28;20069;-60
2023/09/11 11:05:59;;;;;;;13.68;9.55;;;28.60;98.70;;;;;;4988484;28;20041;-60
2023/09/11 11:08:24;;;;;;;12.52;8.70;;;28.50;98.90;;;;;;5015857;28;20556;-59
2023/09/11 11:10:57;;;;;;;11.40;9.13;;;28.70;98.80;;;;;;5002622;28;20073;-59
2023/09/11 11:13:23;;;;;;;10.52;8.38;;;28.90;98.80;;;;;;5002387;28;20323;-59
2023/09/11 11:16:15;;;;;;;15.23;9.32;;;29.10;98.50;;;;;;5000984;28;20040;-59
2023/09/11 11:18:42;;;;;;;12.57;9.13;;;29.00;98.40;;;;;;5003437;28;20121;-60
2023/09/11 11:21:09;;;;;;;11.40;9.15;;;29.10;98.20;;;;;;5022825;28;20053;-59
2023/09/11 11:23:58;;;;;;;12.02;8.88;;;29.10;98.30;;;;;;4993423;28;20815;-59
2023/09/11 11:26:25;;;;;;;10.18;7.88;;;28.80;98.10;;;;;;5003625;28;20103;-60
2023/09/11 11:28:51;;;;;;;12.23;8.13;;;28.70;98.50;;;;;;4996491;28;20057;-59
2023/09/11 11:31:22;;;;;;;9.27;7.63;;;28.80;98.30;;;;;;5006916;28;20053;-59
2023/09/11 11:33:50;;;;;;;12.73;6.80;;;29.00;97.30;;;;;;4997969;28;20103;-59
2023/09/11 11:36:19;;;;;;;9.77;5.45;;;28.80;96.60;;;;;;5006295;28;20041;-59
2023/09/11 11:38:45;;;;;;;7.57;5.63;;;28.80;97.60;;;;;;5003820;28;20072;-59
2023/09/11 11:41:12;;;;;;;9.52;6.28;;;29.00;97.30;;;;;;5003929;28;20089;-59
2023/09/11 11:43:40;;;;;;;7.72;5.93;;;28.90;96.70;;;;;;5023981;28;20045;-59
2023/09/11 11:46:06;;;;;;;6.30;4.85;;;29.10;96.80;;;;;;5007529;28;20121;-59
2023/09/11 11:48:37;;;;;;;10.13;5.65;;;29.10;96.50;;;;;;5004578;28;20138;-59
2023/09/11 11:51:03;;;;;;;10.40;5.15;;;29.00;96.50;;;;;;5018341;28;20042;-60
2023/09/11 11:53:31;;;;;;;7.70;5.28;;;28.80;96.10;;;;;;5008296;28;20038;-59
2023/09/11 11:55:58;;;;;;;11.60;5.50;;;28.60;96.20;;;;;;4995635;28;20041;-59
2023/09/11 11:58:25;;;;;;;6.82;5.25;;;28.20;96.30;;;;;;5000185;28;20137;-59
2023/09/11 12:00:59;;;;;;;8.98;6.50;;;28.30;97.10;;;;;;5004041;28;20053;-59
2023/09/11 12:03:27;;;;;;;8.23;6.45;;;28.30;97.30;;;;;;5008250;28;20048;-60
2023/09/11 12:05:54;;;;;;;13.77;6.20;;;28.10;97.60;;;;;;5005740;28;20113;-60
2023/09/11 12:08:20;;;;;;;11.23;6.80;;;28.30;98.10;;;;;;5001917;28;20528;-58
2023/09/11 12:10:50;;;;;;;11.25;6.38;;;28.30;97.60;;;;;;5008669;28;20080;-60
2023/09/11 12:13:24;;;;;;;8.07;6.30;;;28.20;97.50;;;;;;5004514;28;20718;-59
2023/09/11 12:15:57;;;;;;;10.60;6.38;;;28.40;97.90;;;;;;5006658;28;20120;-60
2023/09/11 12:18:24;;;;;;;;;;;28.60;97.50;;;;;;5004941;28;20046;-60
2023/09/11 12:20:55;;;;;;;13.00;7.28;;;28.70;97.20;;;;;;4991892;28;19968;-60
2023/09/11 12:23:21;;;;;;;9.85;7.10;;;28.60;97.60;;;;;;4994900;28;20565;-59
2023/09/11 12:25:47;;;;;;;11.18;7.60;;;28.20;98.20;;;;;;5006773;28;20100;-58
2023/09/11 12:28:13;;;;;;;13.52;8.25;;;27.90;98.40;;;;;;5005960;28;20038;-58
2023/09/11 12:30:42;;;;;;;8.10;7.30;;;27.80;98.80;;;;;;5022822;28;20317;-58